Terminal Aerodrome Forecast
Issued by NWS North Platte, NE

Home | Current Version | Previous Version | Text Only | Print | Product List | Glossary On
Versions: 1 2 3 4 5 6 7 8 9 10 11 12 13 14 15 16 17 18 19 20
000
FTUS43 KLBF 211100
TAFVTN
TAF
KVTN 211121Z 2112/2212 21004KT P6SM SCT200
     FM212000 21013G20KT P6SM BKN100 OVC200
     FM220000 22009KT P6SM -RA BKN040 OVC080
     FM220400 26012KT P6SM BKN040 OVC100
     FM220900 28014G22KT P6SM -RASN OVC025=

USA.gov is the U.S. government's official web portal to all federal, state and local government web resources and services.